sensor_id;sensor_type;location;lat;lon;timestamp;P1;durP1;ratioP1;P2;durP2;ratioP2
10201;SDS011;5143;42.584;23.164;2023-08-12T00:02:33;3.47;;;3.03;;
10201;SDS011;5143;42.584;23.164;2023-08-12T00:05:00;4.07;;;2.73;;
10201;SDS011;5143;42.584;23.164;2023-08-12T00:07:27;3.80;;;3.50;;
10201;SDS011;5143;42.584;23.164;2023-08-12T00:09:54;4.30;;;3.13;;
10201;SDS011;5143;42.584;23.164;2023-08-12T00:12:21;3.20;;;2.90;;
10201;SDS011;5143;42.584;23.164;2023-08-12T00:14:49;4.30;;;3.40;;
10201;SDS011;5143;42.584;23.164;2023-08-12T00:17:16;3.63;;;3.33;;
10201;SDS011;5143;42.584;23.164;2023-08-12T00:19:43;4.30;;;3.00;;
10201;SDS011;5143;42.584;23.164;2023-08-12T00:22:09;4.80;;;3.30;;
10201;SDS011;5143;42.584;23.164;2023-08-12T00:24:36;4.37;;;2.80;;
10201;SDS011;5143;42.584;23.164;2023-08-12T00:27:03;3.07;;;2.77;;
10201;SDS011;5143;42.584;23.164;2023-08-12T00:29:29;7.37;;;3.77;;
10201;SDS011;5143;42.584;23.164;2023-08-12T00:31:57;3.10;;;2.63;;
10201;SDS011;5143;42.584;23.164;2023-08-12T00:34:24;4.90;;;3.37;;
10201;SDS011;5143;42.584;23.164;2023-08-12T00:36:51;3.43;;;3.00;;
10201;SDS011;5143;42.584;23.164;2023-08-12T00:39:17;4.83;;;3.03;;
10201;SDS011;5143;42.584;23.164;2023-08-12T00:41:44;3.30;;;3.00;;
10201;SDS011;5143;42.584;23.164;2023-08-12T00:44:11;5.53;;;3.40;;
10201;SDS011;5143;42.584;23.164;2023-08-12T00:46:38;3.10;;;2.80;;
10201;SDS011;5143;42.584;23.164;2023-08-12T00:49:08;4.33;;;3.07;;
10201;SDS011;5143;42.584;23.164;2023-08-12T00:51:36;10.87;;;3.40;;
10201;SDS011;5143;42.584;23.164;2023-08-12T00:54:06;3.93;;;3.53;;
10201;SDS011;5143;42.584;23.164;2023-08-12T00:56:37;3.70;;;3.10;;
10201;SDS011;5143;42.584;23.164;2023-08-12T00:59:04;3.20;;;2.90;;
10201;SDS011;5143;42.584;23.164;2023-08-12T01:01:33;3.50;;;3.20;;
10201;SDS011;5143;42.584;23.164;2023-08-12T01:04:01;2.70;;;2.50;;
10201;SDS011;5143;42.584;23.164;2023-08-12T01:06:29;6.17;;;3.13;;
10201;SDS011;5143;42.584;23.164;2023-08-12T01:08:57;3.27;;;2.90;;
10201;SDS011;5143;42.584;23.164;2023-08-12T01:11:24;2.90;;;2.60;;
10201;SDS011;5143;42.584;23.164;2023-08-12T01:13:56;3.33;;;3.03;;
10201;SDS011;5143;42.584;23.164;2023-08-12T01:16:28;3.10;;;2.80;;
10201;SDS011;5143;42.584;23.164;2023-08-12T01:19:00;3.40;;;3.10;;
10201;SDS011;5143;42.584;23.164;2023-08-12T01:21:32;2.93;;;2.73;;
10201;SDS011;5143;42.584;23.164;2023-08-12T01:24:04;5.50;;;3.53;;
10201;SDS011;5143;42.584;23.164;2023-08-12T01:26:31;3.23;;;2.87;;
10201;SDS011;5143;42.584;23.164;2023-08-12T01:28:58;3.43;;;2.97;;
10201;SDS011;5143;42.584;23.164;2023-08-12T01:31:26;3.10;;;2.80;;
10201;SDS011;5143;42.584;23.164;2023-08-12T01:34:01;4.20;;;3.20;;
10201;SDS011;5143;42.584;23.164;2023-08-12T01:36:33;5.10;;;3.20;;
10201;SDS011;5143;42.584;23.164;2023-08-12T01:39:03;6.13;;;3.10;;
10201;SDS011;5143;42.584;23.164;2023-08-12T01:41:32;4.23;;;3.40;;
10201;SDS011;5143;42.584;23.164;2023-08-12T01:43:59;6.33;;;3.60;;
10201;SDS011;5143;42.584;23.164;2023-08-12T01:46:26;3.77;;;3.10;;
10201;SDS011;5143;42.584;23.164;2023-08-12T01:48:53;4.63;;;3.40;;
10201;SDS011;5143;42.584;23.164;2023-08-12T01:51:19;3.43;;;3.13;;
10201;SDS011;5143;42.584;23.164;2023-08-12T01:53:46;4.23;;;3.40;;
10201;SDS011;5143;42.584;23.164;2023-08-12T01:56:14;7.07;;;3.10;;
10201;SDS011;5143;42.584;23.164;2023-08-12T01:58:41;5.20;;;3.20;;
10201;SDS011;5143;42.584;23.164;2023-08-12T02:01:08;5.63;;;3.03;;
10201;SDS011;5143;42.584;23.164;2023-08-12T02:03:34;3.73;;;3.30;;
10201;SDS011;5143;42.584;23.164;2023-08-12T02:06:01;5.53;;;3.20;;
10201;SDS011;5143;42.584;23.164;2023-08-12T02:08:28;3.37;;;3.07;;
10201;SDS011;5143;42.584;23.164;2023-08-12T02:10:55;3.70;;;3.07;;
10201;SDS011;5143;42.584;23.164;2023-08-12T02:13:23;4.73;;;3.20;;
10201;SDS011;5143;42.584;23.164;2023-08-12T02:15:50;3.57;;;2.90;;
10201;SDS011;5143;42.584;23.164;2023-08-12T02:18:16;9.10;;;3.10;;
10201;SDS011;5143;42.584;23.164;2023-08-12T02:20:43;4.57;;;2.97;;
10201;SDS011;5143;42.584;23.164;2023-08-12T02:23:09;3.37;;;3.07;;
10201;SDS011;5143;42.584;23.164;2023-08-12T02:25:36;3.70;;;3.30;;
10201;SDS011;5143;42.584;23.164;2023-08-12T02:28:03;3.30;;;3.00;;
10201;SDS011;5143;42.584;23.164;2023-08-12T02:30:31;3.60;;;2.93;;
10201;SDS011;5143;42.584;23.164;2023-08-12T02:32:58;4.70;;;2.87;;
10201;SDS011;5143;42.584;23.164;2023-08-12T02:35:25;9.87;;;2.97;;
10201;SDS011;5143;42.584;23.164;2023-08-12T02:37:52;3.63;;;3.33;;
10201;SDS011;5143;42.584;23.164;2023-08-12T02:40:18;4.70;;;3.20;;
10201;SDS011;5143;42.584;23.164;2023-08-12T02:42:45;10.23;;;2.90;;
10201;SDS011;5143;42.584;23.164;2023-08-12T02:45:12;3.03;;;2.80;;
10201;SDS011;5143;42.584;23.164;2023-08-12T02:47:40;3.27;;;2.97;;
10201;SDS011;5143;42.584;23.164;2023-08-12T02:50:07;4.90;;;3.07;;
10201;SDS011;5143;42.584;23.164;2023-08-12T02:52:35;4.27;;;2.90;;
10201;SDS011;5143;42.584;23.164;2023-08-12T02:55:02;6.03;;;3.67;;
10201;SDS011;5143;42.584;23.164;2023-08-12T02:57:28;3.63;;;3.10;;
10201;SDS011;5143;42.584;23.164;2023-08-12T02:59:55;8.90;;;3.13;;
10201;SDS011;5143;42.584;23.164;2023-08-12T03:02:22;5.77;;;3.37;;
10201;SDS011;5143;42.584;23.164;2023-08-12T03:04:50;4.77;;;3.47;;
10201;SDS011;5143;42.584;23.164;2023-08-12T03:07:19;8.00;;;3.57;;
10201;SDS011;5143;42.584;23.164;2023-08-12T03:09:45;3.60;;;3.20;;
10201;SDS011;5143;42.584;23.164;2023-08-12T03:12:12;3.73;;;3.33;;
10201;SDS011;5143;42.584;23.164;2023-08-12T03:14:39;3.87;;;2.63;;
10201;SDS011;5143;42.584;23.164;2023-08-12T03:17:05;6.20;;;3.37;;
10201;SDS011;5143;42.584;23.164;2023-08-12T03:19:32;9.37;;;3.10;;
10201;SDS011;5143;42.584;23.164;2023-08-12T03:22:00;3.57;;;3.13;;
10201;SDS011;5143;42.584;23.164;2023-08-12T03:24:27;4.40;;;3.27;;
10201;SDS011;5143;42.584;23.164;2023-08-12T03:26:54;3.70;;;3.10;;
10201;SDS011;5143;42.584;23.164;2023-08-12T03:29:21;6.07;;;3.23;;
10201;SDS011;5143;42.584;23.164;2023-08-12T03:31:48;5.50;;;3.40;;
10201;SDS011;5143;42.584;23.164;2023-08-12T03:34:14;3.70;;;3.40;;
10201;SDS011;5143;42.584;23.164;2023-08-12T03:36:41;3.47;;;2.93;;
10201;SDS011;5143;42.584;23.164;2023-08-12T03:39:10;3.93;;;3.30;;
10201;SDS011;5143;42.584;23.164;2023-08-12T03:41:36;4.40;;;3.20;;
10201;SDS011;5143;42.584;23.164;2023-08-12T03:44:03;5.93;;;3.50;;
10201;SDS011;5143;42.584;23.164;2023-08-12T03:46:30;5.20;;;3.47;;
10201;SDS011;5143;42.584;23.164;2023-08-12T03:48:57;4.03;;;3.23;;
10201;SDS011;5143;42.584;23.164;2023-08-12T03:51:24;3.30;;;2.80;;
10201;SDS011;5143;42.584;23.164;2023-08-12T03:53:51;4.23;;;2.97;;
10201;SDS011;5143;42.584;23.164;2023-08-12T03:56:19;3.43;;;3.13;;
10201;SDS011;5143;42.584;23.164;2023-08-12T03:58:46;4.97;;;2.90;;
10201;SDS011;5143;42.584;23.164;2023-08-12T04:01:12;8.27;;;2.93;;
10201;SDS011;5143;42.584;23.164;2023-08-12T04:03:39;4.50;;;2.90;;
10201;SDS011;5143;42.584;23.164;2023-08-12T04:06:06;3.17;;;2.63;;
10201;SDS011;5143;42.584;23.164;2023-08-12T04:08:33;3.27;;;2.77;;
10201;SDS011;5143;42.584;23.164;2023-08-12T04:10:59;6.53;;;2.80;;
10201;SDS011;5143;42.584;23.164;2023-08-12T04:13:27;8.80;;;3.07;;
10201;SDS011;5143;42.584;23.164;2023-08-12T04:15:54;5.20;;;3.10;;
10201;SDS011;5143;42.584;23.164;2023-08-12T04:18:21;3.20;;;2.80;;
10201;SDS011;5143;42.584;23.164;2023-08-12T04:20:49;6.20;;;2.93;;
10201;SDS011;5143;42.584;23.164;2023-08-12T04:23:16;8.13;;;2.70;;
10201;SDS011;5143;42.584;23.164;2023-08-12T04:25:43;2.97;;;2.47;;
10201;SDS011;5143;42.584;23.164;2023-08-12T04:28:11;3.00;;;2.60;;
10201;SDS011;5143;42.584;23.164;2023-08-12T04:30:41;4.27;;;2.27;;
10201;SDS011;5143;42.584;23.164;2023-08-12T04:33:08;7.03;;;3.93;;
10201;SDS011;5143;42.584;23.164;2023-08-12T04:35:35;3.23;;;2.80;;
10201;SDS011;5143;42.584;23.164;2023-08-12T04:38:02;3.57;;;2.43;;
10201;SDS011;5143;42.584;23.164;2023-08-12T04:40:29;3.13;;;2.27;;
10201;SDS011;5143;42.584;23.164;2023-08-12T04:42:56;3.37;;;2.47;;
10201;SDS011;5143;42.584;23.164;2023-08-12T04:45:23;5.50;;;2.10;;
10201;SDS011;5143;42.584;23.164;2023-08-12T04:47:51;3.73;;;2.10;;
10201;SDS011;5143;42.584;23.164;2023-08-12T04:50:18;3.23;;;2.13;;
10201;SDS011;5143;42.584;23.164;2023-08-12T04:52:46;4.77;;;2.50;;
10201;SDS011;5143;42.584;23.164;2023-08-12T04:55:12;9.17;;;2.70;;
10201;SDS011;5143;42.584;23.164;2023-08-12T04:57:39;11.83;;;4.67;;
10201;SDS011;5143;42.584;23.164;2023-08-12T05:00:06;7.57;;;5.50;;
10201;SDS011;5143;42.584;23.164;2023-08-12T05:02:34;12.67;;;8.33;;
10201;SDS011;5143;42.584;23.164;2023-08-12T05:05:03;8.70;;;6.00;;
10201;SDS011;5143;42.584;23.164;2023-08-12T05:07:30;4.57;;;3.10;;
10201;SDS011;5143;42.584;23.164;2023-08-12T05:09:59;4.63;;;3.40;;
10201;SDS011;5143;42.584;23.164;2023-08-12T05:12:25;2.97;;;2.47;;
10201;SDS011;5143;42.584;23.164;2023-08-12T05:14:52;3.93;;;1.90;;
10201;SDS011;5143;42.584;23.164;2023-08-12T05:17:19;7.50;;;2.00;;
10201;SDS011;5143;42.584;23.164;2023-08-12T05:19:46;2.33;;;1.70;;
10201;SDS011;5143;42.584;23.164;2023-08-12T05:22:14;3.13;;;1.97;;
10201;SDS011;5143;42.584;23.164;2023-08-12T05:24:41;2.23;;;1.80;;
10201;SDS011;5143;42.584;23.164;2023-08-12T05:27:08;5.53;;;2.03;;
10201;SDS011;5143;42.584;23.164;2023-08-12T05:29:35;2.47;;;1.70;;
10201;SDS011;5143;42.584;23.164;2023-08-12T05:32:01;3.67;;;1.47;;
10201;SDS011;5143;42.584;23.164;2023-08-12T05:34:28;5.60;;;1.58;;
10201;SDS011;5143;42.584;23.164;2023-08-12T05:36:55;2.47;;;1.35;;
10201;SDS011;5143;42.584;23.164;2023-08-12T05:39:23;1.45;;;1.20;;
10201;SDS011;5143;42.584;23.164;2023-08-12T05:41:50;2.85;;;2.55;;
10201;SDS011;5143;42.584;23.164;2023-08-12T05:44:17;3.00;;;2.17;;
10201;SDS011;5143;42.584;23.164;2023-08-12T05:46:44;1.20;;;1.10;;
10201;SDS011;5143;42.584;23.164;2023-08-12T05:49:11;2.97;;;1.65;;
10201;SDS011;5143;42.584;23.164;2023-08-12T05:51:37;1.90;;;1.27;;
10201;SDS011;5143;42.584;23.164;2023-08-12T05:54:04;2.00;;;1.80;;
10201;SDS011;5143;42.584;23.164;2023-08-12T05:56:33;4.68;;;1.85;;
10201;SDS011;5143;42.584;23.164;2023-08-12T05:59:00;1.92;;;1.50;;
10201;SDS011;5143;42.584;23.164;2023-08-12T06:01:26;2.55;;;1.70;;
10201;SDS011;5143;42.584;23.164;2023-08-12T06:03:53;4.72;;;2.20;;
10201;SDS011;5143;42.584;23.164;2023-08-12T06:06:20;2.83;;;1.77;;
10201;SDS011;5143;42.584;23.164;2023-08-12T06:08:47;2.90;;;1.90;;
10201;SDS011;5143;42.584;23.164;2023-08-12T06:11:14;5.32;;;1.92;;
10201;SDS011;5143;42.584;23.164;2023-08-12T06:13:42;2.72;;;1.80;;
10201;SDS011;5143;42.584;23.164;2023-08-12T06:16:09;2.05;;;1.58;;
10201;SDS011;5143;42.584;23.164;2023-08-12T06:18:36;3.35;;;1.50;;
10201;SDS011;5143;42.584;23.164;2023-08-12T06:21:03;3.65;;;1.48;;
10201;SDS011;5143;42.584;23.164;2023-08-12T06:23:29;5.88;;;1.70;;
10201;SDS011;5143;42.584;23.164;2023-08-12T06:25:56;3.33;;;1.73;;
10201;SDS011;5143;42.584;23.164;2023-08-12T06:28:23;2.78;;;1.40;;
10201;SDS011;5143;42.584;23.164;2023-08-12T06:30:51;4.30;;;1.65;;
10201;SDS011;5143;42.584;23.164;2023-08-12T06:33:18;1.60;;;1.20;;
10201;SDS011;5143;42.584;23.164;2023-08-12T06:35:45;7.10;;;1.50;;
10201;SDS011;5143;42.584;23.164;2023-08-12T06:38:12;2.50;;;1.63;;
10201;SDS011;5143;42.584;23.164;2023-08-12T06:40:39;2.95;;;1.50;;
10201;SDS011;5143;42.584;23.164;2023-08-12T06:43:06;2.15;;;1.50;;
10201;SDS011;5143;42.584;23.164;2023-08-12T06:45:34;2.05;;;1.50;;
10201;SDS011;5143;42.584;23.164;2023-08-12T06:48:02;4.70;;;1.63;;
10201;SDS011;5143;42.584;23.164;2023-08-12T06:50:29;3.97;;;1.77;;
10201;SDS011;5143;42.584;23.164;2023-08-12T06:52:57;8.15;;;1.67;;
10201;SDS011;5143;42.584;23.164;2023-08-12T06:55:23;3.67;;;1.40;;
10201;SDS011;5143;42.584;23.164;2023-08-12T06:57:50;2.45;;;1.40;;
10201;SDS011;5143;42.584;23.164;2023-08-12T07:00:17;6.78;;;1.40;;
10201;SDS011;5143;42.584;23.164;2023-08-12T07:02:44;2.88;;;1.60;;
10201;SDS011;5143;42.584;23.164;2023-08-12T07:05:12;4.03;;;1.33;;
10201;SDS011;5143;42.584;23.164;2023-08-12T07:07:38;3.60;;;1.27;;
10201;SDS011;5143;42.584;23.164;2023-08-12T07:10:06;2.65;;;1.30;;
10201;SDS011;5143;42.584;23.164;2023-08-12T07:12:33;4.00;;;1.40;;
10201;SDS011;5143;42.584;23.164;2023-08-12T07:15:00;6.65;;;1.70;;
10201;SDS011;5143;42.584;23.164;2023-08-12T07:17:27;2.92;;;1.60;;
10201;SDS011;5143;42.584;23.164;2023-08-12T07:19:54;17.13;;;3.08;;
10201;SDS011;5143;42.584;23.164;2023-08-12T07:22:22;2.17;;;1.15;;
10201;SDS011;5143;42.584;23.164;2023-08-12T07:24:49;5.40;;;1.40;;
10201;SDS011;5143;42.584;23.164;2023-08-12T07:27:17;4.30;;;1.20;;
10201;SDS011;5143;42.584;23.164;2023-08-12T07:29:45;2.05;;;1.42;;
10201;SDS011;5143;42.584;23.164;2023-08-12T07:32:11;2.60;;;1.33;;
10201;SDS011;5143;42.584;23.164;2023-08-12T07:34:38;2.80;;;1.30;;
10201;SDS011;5143;42.584;23.164;2023-08-12T07:37:05;4.13;;;1.23;;
10201;SDS011;5143;42.584;23.164;2023-08-12T07:39:33;2.58;;;1.38;;
10201;SDS011;5143;42.584;23.164;2023-08-12T07:42:00;2.38;;;1.48;;
10201;SDS011;5143;42.584;23.164;2023-08-12T07:44:26;1.95;;;1.60;;
10201;SDS011;5143;42.584;23.164;2023-08-12T07:46:53;2.55;;;1.60;;
10201;SDS011;5143;42.584;23.164;2023-08-12T07:49:20;7.68;;;1.25;;
10201;SDS011;5143;42.584;23.164;2023-08-12T07:51:47;2.15;;;1.20;;
10201;SDS011;5143;42.584;23.164;2023-08-12T07:54:14;1.65;;;1.20;;
10201;SDS011;5143;42.584;23.164;2023-08-12T07:56:42;2.08;;;1.20;;
10201;SDS011;5143;42.584;23.164;2023-08-12T07:59:09;2.08;;;1.38;;
10201;SDS011;5143;42.584;23.164;2023-08-12T08:01:35;4.70;;;1.40;;
10201;SDS011;5143;42.584;23.164;2023-08-12T08:04:02;3.50;;;1.60;;
10201;SDS011;5143;42.584;23.164;2023-08-12T08:06:29;1.92;;;1.50;;
10201;SDS011;5143;42.584;23.164;2023-08-12T08:08:56;3.40;;;1.58;;
10201;SDS011;5143;42.584;23.164;2023-08-12T08:11:24;2.90;;;1.92;;
10201;SDS011;5143;42.584;23.164;2023-08-12T08:13:52;4.82;;;1.85;;
10201;SDS011;5143;42.584;23.164;2023-08-12T08:16:19;4.22;;;2.05;;
10201;SDS011;5143;42.584;23.164;2023-08-12T08:18:46;4.83;;;1.97;;
10201;SDS011;5143;42.584;23.164;2023-08-12T08:21:12;2.00;;;1.60;;
10201;SDS011;5143;42.584;23.164;2023-08-12T08:23:39;4.27;;;1.83;;
10201;SDS011;5143;42.584;23.164;2023-08-12T08:26:06;7.53;;;1.70;;
10201;SDS011;5143;42.584;23.164;2023-08-12T08:28:33;3.50;;;1.60;;
10201;SDS011;5143;42.584;23.164;2023-08-12T08:31:04;4.13;;;2.13;;
10201;SDS011;5143;42.584;23.164;2023-08-12T08:33:31;2.73;;;1.90;;
10201;SDS011;5143;42.584;23.164;2023-08-12T08:35:58;1.77;;;1.53;;
10201;SDS011;5143;42.584;23.164;2023-08-12T08:38:25;2.07;;;1.50;;
10201;SDS011;5143;42.584;23.164;2023-08-12T08:40:52;3.87;;;1.70;;
10201;SDS011;5143;42.584;23.164;2023-08-12T08:43:19;5.63;;;1.70;;
10201;SDS011;5143;42.584;23.164;2023-08-12T08:45:48;4.43;;;1.97;;
10201;SDS011;5143;42.584;23.164;2023-08-12T08:48:19;4.80;;;1.70;;
10201;SDS011;5143;42.584;23.164;2023-08-12T08:50:46;3.67;;;1.80;;
10201;SDS011;5143;42.584;23.164;2023-08-12T08:53:16;6.13;;;1.90;;
10201;SDS011;5143;42.584;23.164;2023-08-12T08:55:44;6.73;;;1.73;;
10201;SDS011;5143;42.584;23.164;2023-08-12T08:58:11;2.80;;;1.80;;
10201;SDS011;5143;42.584;23.164;2023-08-12T09:00:38;5.10;;;2.00;;
10201;SDS011;5143;42.584;23.164;2023-08-12T09:03:05;2.83;;;1.77;;
10201;SDS011;5143;42.584;23.164;2023-08-12T09:05:35;6.50;;;1.90;;
10201;SDS011;5143;42.584;23.164;2023-08-12T09:08:04;13.40;;;3.23;;
10201;SDS011;5143;42.584;23.164;2023-08-12T09:10:36;3.03;;;1.70;;
10201;SDS011;5143;42.584;23.164;2023-08-12T09:13:06;5.97;;;2.00;;
10201;SDS011;5143;42.584;23.164;2023-08-12T09:15:33;2.77;;;2.00;;
10201;SDS011;5143;42.584;23.164;2023-08-12T09:18:00;2.93;;;1.80;;
10201;SDS011;5143;42.584;23.164;2023-08-12T09:20:27;5.37;;;2.40;;
10201;SDS011;5143;42.584;23.164;2023-08-12T09:22:58;6.50;;;2.47;;
10201;SDS011;5143;42.584;23.164;2023-08-12T09:25:26;4.10;;;1.90;;
10201;SDS011;5143;42.584;23.164;2023-08-12T09:27:54;1.83;;;1.50;;
10201;SDS011;5143;42.584;23.164;2023-08-12T09:30:21;3.10;;;2.00;;
10201;SDS011;5143;42.584;23.164;2023-08-12T09:32:57;7.20;;;2.13;;
10201;SDS011;5143;42.584;23.164;2023-08-12T09:35:34;6.13;;;2.10;;
10201;SDS011;5143;42.584;23.164;2023-08-12T09:38:05;5.53;;;2.10;;
10201;SDS011;5143;42.584;23.164;2023-08-12T09:40:33;2.87;;;2.00;;
10201;SDS011;5143;42.584;23.164;2023-08-12T09:43:00;3.90;;;1.60;;
10201;SDS011;5143;42.584;23.164;2023-08-12T09:45:27;4.23;;;2.07;;
10201;SDS011;5143;42.584;23.164;2023-08-12T09:47:54;4.77;;;1.90;;
10201;SDS011;5143;42.584;23.164;2023-08-12T09:50:21;3.87;;;2.13;;
10201;SDS011;5143;42.584;23.164;2023-08-12T09:52:49;3.80;;;2.00;;
10201;SDS011;5143;42.584;23.164;2023-08-12T09:55:19;5.33;;;2.40;;
10201;SDS011;5143;42.584;23.164;2023-08-12T09:57:48;4.67;;;1.97;;
10201;SDS011;5143;42.584;23.164;2023-08-12T10:00:18;2.73;;;1.80;;
10201;SDS011;5143;42.584;23.164;2023-08-12T10:02:46;2.47;;;1.90;;
10201;SDS011;5143;42.584;23.164;2023-08-12T10:05:16;4.83;;;1.77;;
10201;SDS011;5143;42.584;23.164;2023-08-12T10:07:46;2.27;;;1.53;;
10201;SDS011;5143;42.584;23.164;2023-08-12T10:10:13;4.23;;;2.00;;
10201;SDS011;5143;42.584;23.164;2023-08-12T10:12:42;4.90;;;1.50;;
10201;SDS011;5143;42.584;23.164;2023-08-12T10:15:10;6.00;;;1.80;;
10201;SDS011;5143;42.584;23.164;2023-08-12T10:17:40;3.37;;;1.90;;
10201;SDS011;5143;42.584;23.164;2023-08-12T10:20:09;3.50;;;1.93;;
10201;SDS011;5143;42.584;23.164;2023-08-12T10:22:39;2.93;;;1.77;;
10201;SDS011;5143;42.584;23.164;2023-08-12T10:25:08;2.80;;;1.70;;
10201;SDS011;5143;42.584;23.164;2023-08-12T10:27:35;6.57;;;1.70;;
10201;SDS011;5143;42.584;23.164;2023-08-12T10:30:04;4.00;;;1.77;;
10201;SDS011;5143;42.584;23.164;2023-08-12T10:32:34;3.40;;;1.90;;
10201;SDS011;5143;42.584;23.164;2023-08-12T10:35:01;1.80;;;1.57;;
10201;SDS011;5143;42.584;23.164;2023-08-12T10:37:31;3.27;;;1.60;;
10201;SDS011;5143;42.584;23.164;2023-08-12T10:39:59;7.33;;;2.03;;
10201;SDS011;5143;42.584;23.164;2023-08-12T10:45:13;3.67;;;1.60;;
10201;SDS011;5143;42.584;23.164;2023-08-12T10:47:43;1.87;;;1.40;;
10201;SDS011;5143;42.584;23.164;2023-08-12T10:50:18;5.00;;;1.80;;
10201;SDS011;5143;42.584;23.164;2023-08-12T10:52:45;2.33;;;1.70;;
10201;SDS011;5143;42.584;23.164;2023-08-12T10:55:19;2.70;;;1.50;;
10201;SDS011;5143;42.584;23.164;2023-08-12T10:57:47;4.33;;;1.53;;
10201;SDS011;5143;42.584;23.164;2023-08-12T11:00:16;2.10;;;1.70;;
10201;SDS011;5143;42.584;23.164;2023-08-12T11:02:49;1.97;;;1.30;;
10201;SDS011;5143;42.584;23.164;2023-08-12T11:05:17;2.27;;;1.20;;
10201;SDS011;5143;42.584;23.164;2023-08-12T11:07:45;2.57;;;1.50;;
10201;SDS011;5143;42.584;23.164;2023-08-12T11:10:14;1.67;;;1.43;;
10201;SDS011;5143;42.584;23.164;2023-08-12T11:12:47;3.20;;;1.30;;
10201;SDS011;5143;42.584;23.164;2023-08-12T11:15:28;3.60;;;1.63;;
10201;SDS011;5143;42.584;23.164;2023-08-12T11:17:57;5.27;;;1.43;;
10201;SDS011;5143;42.584;23.164;2023-08-12T11:20:25;2.40;;;1.40;;
10201;SDS011;5143;42.584;23.164;2023-08-12T11:22:54;1.87;;;1.23;;
10201;SDS011;5143;42.584;23.164;2023-08-12T11:25:21;3.13;;;1.47;;
10201;SDS011;5143;42.584;23.164;2023-08-12T11:27:48;1.33;;;1.20;;
10201;SDS011;5143;42.584;23.164;2023-08-12T11:30:15;2.20;;;1.80;;
10201;SDS011;5143;42.584;23.164;2023-08-12T11:32:44;2.37;;;1.40;;
10201;SDS011;5143;42.584;23.164;2023-08-12T11:35:12;1.80;;;1.20;;
10201;SDS011;5143;42.584;23.164;2023-08-12T11:37:41;1.97;;;1.20;;
10201;SDS011;5143;42.584;23.164;2023-08-12T11:40:09;2.53;;;1.50;;
10201;SDS011;5143;42.584;23.164;2023-08-12T11:42:36;2.43;;;1.60;;
10201;SDS011;5143;42.584;23.164;2023-08-12T11:45:05;1.40;;;1.27;;
10201;SDS011;5143;42.584;23.164;2023-08-12T11:47:33;3.27;;;1.50;;
10201;SDS011;5143;42.584;23.164;2023-08-12T11:50:02;2.27;;;1.13;;
10201;SDS011;5143;42.584;23.164;2023-08-12T11:52:30;2.17;;;1.30;;
10201;SDS011;5143;42.584;23.164;2023-08-12T11:54:57;1.40;;;1.03;;
10201;SDS011;5143;42.584;23.164;2023-08-12T11:57:25;1.53;;;1.20;;
10201;SDS011;5143;42.584;23.164;2023-08-12T11:59:53;2.77;;;1.30;;
10201;SDS011;5143;42.584;23.164;2023-08-12T12:02:24;6.20;;;1.50;;
10201;SDS011;5143;42.584;23.164;2023-08-12T12:04:51;2.10;;;1.30;;
10201;SDS011;5143;42.584;23.164;2023-08-12T12:07:19;5.80;;;1.60;;
10201;SDS011;5143;42.584;23.164;2023-08-12T12:09:50;2.60;;;1.30;;
10201;SDS011;5143;42.584;23.164;2023-08-12T12:12:17;3.13;;;1.37;;
10201;SDS011;5143;42.584;23.164;2023-08-12T12:14:46;2.67;;;1.50;;
10201;SDS011;5143;42.584;23.164;2023-08-12T12:17:14;2.30;;;1.37;;
10201;SDS011;5143;42.584;23.164;2023-08-12T12:19:41;1.50;;;1.17;;
10201;SDS011;5143;42.584;23.164;2023-08-12T12:22:08;2.03;;;1.30;;
10201;SDS011;5143;42.584;23.164;2023-08-12T12:24:44;2.07;;;1.40;;
10201;SDS011;5143;42.584;23.164;2023-08-12T12:27:12;2.33;;;1.53;;
10201;SDS011;5143;42.584;23.164;2023-08-12T12:29:39;3.83;;;1.43;;
10201;SDS011;5143;42.584;23.164;2023-08-12T12:32:06;4.43;;;1.40;;
10201;SDS011;5143;42.584;23.164;2023-08-12T12:34:34;2.57;;;1.23;;
10201;SDS011;5143;42.584;23.164;2023-08-12T12:37:00;3.97;;;1.40;;
10201;SDS011;5143;42.584;23.164;2023-08-12T12:39:27;1.93;;;1.30;;
10201;SDS011;5143;42.584;23.164;2023-08-12T12:41:55;1.87;;;1.10;;
10201;SDS011;5143;42.584;23.164;2023-08-12T12:44:24;2.67;;;1.30;;
10201;SDS011;5143;42.584;23.164;2023-08-12T12:46:51;1.90;;;1.40;;
10201;SDS011;5143;42.584;23.164;2023-08-12T12:49:19;2.10;;;1.53;;
10201;SDS011;5143;42.584;23.164;2023-08-12T12:51:46;1.47;;;1.37;;
10201;SDS011;5143;42.584;23.164;2023-08-12T12:54:13;1.47;;;1.30;;
10201;SDS011;5143;42.584;23.164;2023-08-12T12:56:40;4.47;;;1.40;;
10201;SDS011;5143;42.584;23.164;2023-08-12T12:59:08;1.93;;;1.57;;
10201;SDS011;5143;42.584;23.164;2023-08-12T13:01:35;2.67;;;1.50;;
10201;SDS011;5143;42.584;23.164;2023-08-12T13:04:03;3.03;;;1.70;;
10201;SDS011;5143;42.584;23.164;2023-08-12T13:06:29;9.77;;;2.27;;
10201;SDS011;5143;42.584;23.164;2023-08-12T13:08:56;1.90;;;1.60;;
10201;SDS011;5143;42.584;23.164;2023-08-12T13:11:26;3.97;;;1.77;;
10201;SDS011;5143;42.584;23.164;2023-08-12T13:13:52;2.80;;;1.60;;
10201;SDS011;5143;42.584;23.164;2023-08-12T13:16:21;2.23;;;1.40;;
10201;SDS011;5143;42.584;23.164;2023-08-12T13:18:48;14.57;;;2.07;;
10201;SDS011;5143;42.584;23.164;2023-08-12T13:21:14;6.10;;;1.50;;
10201;SDS011;5143;42.584;23.164;2023-08-12T13:23:41;2.00;;;1.50;;
10201;SDS011;5143;42.584;23.164;2023-08-12T13:26:08;2.60;;;1.60;;
10201;SDS011;5143;42.584;23.164;2023-08-12T13:28:34;2.03;;;1.50;;
10201;SDS011;5143;42.584;23.164;2023-08-12T13:31:01;4.33;;;1.70;;
10201;SDS011;5143;42.584;23.164;2023-08-12T13:33:30;4.07;;;1.40;;
10201;SDS011;5143;42.584;23.164;2023-08-12T13:35:56;2.00;;;1.33;;
10201;SDS011;5143;42.584;23.164;2023-08-12T13:38:23;2.20;;;1.67;;
10201;SDS011;5143;42.584;23.164;2023-08-12T13:40:50;10.07;;;1.93;;
10201;SDS011;5143;42.584;23.164;2023-08-12T13:43:17;2.57;;;1.73;;
10201;SDS011;5143;42.584;23.164;2023-08-12T13:45:44;2.63;;;1.50;;
10201;SDS011;5143;42.584;23.164;2023-08-12T13:48:11;1.97;;;1.30;;
10201;SDS011;5143;42.584;23.164;2023-08-12T13:50:39;1.53;;;1.20;;
10201;SDS011;5143;42.584;23.164;2023-08-12T13:53:05;1.80;;;1.40;;
10201;SDS011;5143;42.584;23.164;2023-08-12T13:55:32;4.13;;;1.40;;
10201;SDS011;5143;42.584;23.164;2023-08-12T13:57:59;2.70;;;1.40;;
10201;SDS011;5143;42.584;23.164;2023-08-12T14:00:25;2.53;;;1.60;;
10201;SDS011;5143;42.584;23.164;2023-08-12T14:02:52;1.50;;;1.30;;
10201;SDS011;5143;42.584;23.164;2023-08-12T14:05:19;3.03;;;1.40;;
10201;SDS011;5143;42.584;23.164;2023-08-12T14:07:47;2.07;;;1.50;;
10201;SDS011;5143;42.584;23.164;2023-08-12T14:10:14;2.30;;;1.60;;
10201;SDS011;5143;42.584;23.164;2023-08-12T14:12:40;11.53;;;2.00;;
10201;SDS011;5143;42.584;23.164;2023-08-12T14:15:07;1.63;;;1.33;;
10201;SDS011;5143;42.584;23.164;2023-08-12T14:17:34;2.13;;;1.27;;
10201;SDS011;5143;42.584;23.164;2023-08-12T14:20:01;3.87;;;1.70;;
10201;SDS011;5143;42.584;23.164;2023-08-12T14:22:30;4.43;;;1.43;;
10201;SDS011;5143;42.584;23.164;2023-08-12T14:24:58;1.90;;;1.50;;
10201;SDS011;5143;42.584;23.164;2023-08-12T14:27:25;5.40;;;1.60;;
10201;SDS011;5143;42.584;23.164;2023-08-12T14:29:52;4.00;;;1.93;;
10201;SDS011;5143;42.584;23.164;2023-08-12T14:32:18;3.10;;;1.70;;
10201;SDS011;5143;42.584;23.164;2023-08-12T14:34:45;4.33;;;1.60;;
10201;SDS011;5143;42.584;23.164;2023-08-12T14:37:13;3.47;;;1.80;;
10201;SDS011;5143;42.584;23.164;2023-08-12T14:39:39;2.10;;;1.50;;
10201;SDS011;5143;42.584;23.164;2023-08-12T14:42:07;2.40;;;1.87;;
10201;SDS011;5143;42.584;23.164;2023-08-12T14:44:35;2.00;;;1.37;;
10201;SDS011;5143;42.584;23.164;2023-08-12T14:47:02;5.20;;;1.27;;
10201;SDS011;5143;42.584;23.164;2023-08-12T14:49:30;2.73;;;1.33;;
10201;SDS011;5143;42.584;23.164;2023-08-12T14:51:56;4.30;;;1.57;;
10201;SDS011;5143;42.584;23.164;2023-08-12T14:54:23;5.67;;;1.60;;